Eftichia — C6ZI4 — position and weather

sailwx.info

Track history (hours):
 
Tides and Currents Weather Stations Pressure Air Temp Water Temp Dewpoint Dewpoint Depression Visibility Wind Speed Wind Dir Waves Ship Positions

Eftichia

Last reported at 2015-Apr-19 13:33 UTC. Time now 2015-Apr-19 14:11 UTC.
Position N 37°48' W 009°35'.

Length 181 m; draft 7.6 m.

Type: Cargo ship. MMSI: 311033882.

Date/timePositionNaut miles runAvg speedWind from/ knotsBaromVisibWave heightAir tempDewpointWater temp
2015-Apr-19 13:33N 37°48' W 009°35'1312.8
2015-Apr-19 12:33N 37°35' W 009°32'6011.8
2015-Apr-19 07:27N 36°41' W 008°58'1412.7
2015-Apr-19 06:20N 36°36' W 008°41'1513.1
2015-Apr-19 05:12N 36°32' W 008°24'14012.7
2015-Apr-18 18:13N 35°58' W 005°36'7 9.8
2015-Apr-18 17:32N 35°59' W 005°28'1010.3
2015-Apr-18 16:33N 36°02' W 005°16'22513.7
2015-Apr-18 00:05N 36°29' W 000°38'2814.0
2015-Apr-17 22:06N 36°34' W 000°04'713.4
2015-Apr-17 21:33N 36°35' E 000°05'1413.7
2015-Apr-17 20:33N 36°37' E 000°22'1413.4
2015-Apr-17 19:32N 36°40' E 000°39'34913.4
2015-Apr-16 17:29N 37°38' E 007°51'4113.7
2015-Apr-16 14:29N 37°38' E 008°43'1313.9
2015-Apr-16 13:33N 37°38' E 008°59'3014.0
2015-Apr-16 11:25N 37°38' E 009°37'1213.7
2015-Apr-16 10:33N 37°38' E 009°52'1413.7
2015-Apr-16 09:31N 37°39' E 010°09'3013.4
2015-Apr-16 07:15N 37°37' E 010°48'913.6
2015-Apr-16 06:34N 37°32' E 010°58'1413.6
2015-Apr-16 05:33N 37°26' E 011°13'1313.3
2015-Apr-16 04:33N 37°20' E 011°28'1513.7
2015-Apr-16 03:30N 37°13' E 011°44'2713.7
2015-Apr-16 01:34N 37°01' E 012°14'1413.8
2015-Apr-16 00:33N 36°54' E 012°29'1413.7
2015-Apr-15 23:33N 36°48' E 012°44'1413.9
2015-Apr-15 22:33N 36°41' E 012°60'1414.0
2015-Apr-15 21:34N 36°35' E 013°15'1413.6
2015-Apr-15 20:33N 36°29' E 013°30'1313.1
2015-Apr-15 19:34N 36°27' E 013°46'1413.7
2015-Apr-15 18:33N 36°26' E 014°03'1313.5
2015-Apr-15 17:34N 36°26' E 014°20'1313.3
2015-Apr-15 16:33N 36°26' E 014°37'1313.2
2015-Apr-15 15:33N 36°26' E 014°53'1713.5
2015-Apr-15 14:18N 36°26' E 015°14'40713.1
2015-Apr-14 07:12N 36°48' E 023°41'913.7
2015-Apr-14 06:33N 36°55' E 023°48'6013.9
2015-Apr-14 02:12N 37°44' E 024°33'1014.1
2015-Apr-14 01:30N 37°53' E 024°36'12614.0
2015-Apr-13 16:31N 39°47' E 025°46'183 9.2
2015-Apr-12 20:33N 41°29' E 029°06'0 0.1
2015-Apr-12 19:28N 41°29' E 029°06'0 0.1
2015-Apr-12 17:23N 41°29' E 029°06'0 0.3
2015-Apr-12 16:32N 41°29' E 029°06'0 0.1
2015-Apr-12 15:32N 41°29' E 029°06'0 0.1
2015-Apr-12 14:32N 41°29' E 029°05'0 0.1
2015-Apr-12 13:32N 41°29' E 029°05'0 0.2
2015-Apr-12 12:32N 41°29' E 029°05'0 0.2
2015-Apr-12 11:32N 41°28' E 029°05'0 0.2
2015-Apr-12 10:32N 41°28' E 029°05'0 0.3
2015-Apr-12 09:32N 41°28' E 029°04'0 0.3
2015-Apr-12 08:32N 41°28' E 029°04'0 0.3
2015-Apr-12 07:14N 41°28' E 029°03'0 0.2
2015-Apr-12 06:32N 41°28' E 029°03'  
Track history (hours):
 
Tides and Currents Weather Stations Pressure Air Temp Water Temp Dewpoint Dewpoint Depression Visibility Wind Speed Wind Dir Waves Ship Positions

Eftichia

Last reported at 2015-Apr-19 13:33 UTC. Time now 2015-Apr-19 14:11 UTC.
Position N 37°48' W 009°35'.

Length 181 m; draft 7.6 m.

Type: Cargo ship. MMSI: 311033882.

Date/timePositionNaut miles runAvg speedWind from/ knotsBaromVisibWave heightAir tempDewpointWater temp
2015-Apr-19 13:33N 37°48' W 009°35'1312.8
2015-Apr-19 12:33N 37°35' W 009°32'6011.8
2015-Apr-19 07:27N 36°41' W 008°58'1412.7
2015-Apr-19 06:20N 36°36' W 008°41'1513.1
2015-Apr-19 05:12N 36°32' W 008°24'14012.7
2015-Apr-18 18:13N 35°58' W 005°36'7 9.8
2015-Apr-18 17:32N 35°59' W 005°28'1010.3
2015-Apr-18 16:33N 36°02' W 005°16'22513.7
2015-Apr-18 00:05N 36°29' W 000°38'2814.0
2015-Apr-17 22:06N 36°34' W 000°04'713.4
2015-Apr-17 21:33N 36°35' E 000°05'1413.7
2015-Apr-17 20:33N 36°37' E 000°22'1413.4
2015-Apr-17 19:32N 36°40' E 000°39'34913.4
2015-Apr-16 17:29N 37°38' E 007°51'4113.7
2015-Apr-16 14:29N 37°38' E 008°43'1313.9
2015-Apr-16 13:33N 37°38' E 008°59'3014.0
2015-Apr-16 11:25N 37°38' E 009°37'1213.7
2015-Apr-16 10:33N 37°38' E 009°52'1413.7
2015-Apr-16 09:31N 37°39' E 010°09'3013.4
2015-Apr-16 07:15N 37°37' E 010°48'913.6
2015-Apr-16 06:34N 37°32' E 010°58'1413.6
2015-Apr-16 05:33N 37°26' E 011°13'1313.3
2015-Apr-16 04:33N 37°20' E 011°28'1513.7
2015-Apr-16 03:30N 37°13' E 011°44'2713.7
2015-Apr-16 01:34N 37°01' E 012°14'1413.8
2015-Apr-16 00:33N 36°54' E 012°29'1413.7
2015-Apr-15 23:33N 36°48' E 012°44'1413.9
2015-Apr-15 22:33N 36°41' E 012°60'1414.0
2015-Apr-15 21:34N 36°35' E 013°15'1413.6
2015-Apr-15 20:33N 36°29' E 013°30'1313.1
2015-Apr-15 19:34N 36°27' E 013°46'1413.7
2015-Apr-15 18:33N 36°26' E 014°03'1313.5
2015-Apr-15 17:34N 36°26' E 014°20'1313.3
2015-Apr-15 16:33N 36°26' E 014°37'1313.2
2015-Apr-15 15:33N 36°26' E 014°53'1713.5
2015-Apr-15 14:18N 36°26' E 015°14'40713.1
2015-Apr-14 07:12N 36°48' E 023°41'913.7
2015-Apr-14 06:33N 36°55' E 023°48'6013.9
2015-Apr-14 02:12N 37°44' E 024°33'1014.1
2015-Apr-14 01:30N 37°53' E 024°36'12614.0
2015-Apr-13 16:31N 39°47' E 025°46'183 9.2
2015-Apr-12 20:33N 41°29' E 029°06'0 0.1
2015-Apr-12 19:28N 41°29' E 029°06'0 0.1
2015-Apr-12 17:23N 41°29' E 029°06'0 0.3
2015-Apr-12 16:32N 41°29' E 029°06'0 0.1
2015-Apr-12 15:32N 41°29' E 029°06'0 0.1
2015-Apr-12 14:32N 41°29' E 029°05'0 0.1
2015-Apr-12 13:32N 41°29' E 029°05'0 0.2
2015-Apr-12 12:32N 41°29' E 029°05'0 0.2
2015-Apr-12 11:32N 41°28' E 029°05'0 0.2
2015-Apr-12 10:32N 41°28' E 029°05'0 0.3
2015-Apr-12 09:32N 41°28' E 029°04'0 0.3
2015-Apr-12 08:32N 41°28' E 029°04'0 0.3
2015-Apr-12 07:14N 41°28' E 029°03'0 0.2
2015-Apr-12 06:32N 41°28' E 029°03'  

Dump ship's entire track history